createdAt,value
2022-12-23T00:01:27.907Z,8.26
2022-12-23T00:03:58.349Z,8.26
2022-12-23T00:06:25.374Z,8.26
2022-12-23T00:08:58.410Z,8.27
2022-12-23T00:11:26.806Z,8.26
2022-12-23T00:14:18.438Z,8.26
2022-12-23T00:16:48.172Z,8.24
2022-12-23T00:19:14.762Z,8.25
2022-12-23T00:21:41.288Z,8.26
2022-12-23T00:24:07.942Z,8.27
2022-12-23T00:26:34.517Z,8.28
2022-12-23T00:29:01.051Z,8.28
2022-12-23T00:31:27.658Z,8.26
2022-12-23T00:33:54.421Z,8.26
2022-12-23T00:36:25.119Z,8.26
2022-12-23T00:39:12.175Z,8.25
2022-12-23T00:41:59.047Z,8.23
2022-12-23T00:44:25.796Z,8.22
2022-12-23T00:46:52.404Z,8.21
2022-12-23T00:49:40.277Z,8.20
2022-12-23T00:52:10.767Z,8.18
2022-12-23T00:54:37.469Z,8.16
2022-12-23T00:57:04.501Z,8.17
2022-12-23T00:59:31.099Z,8.15
2022-12-23T01:02:17.639Z,8.15
2022-12-23T01:05:04.224Z,8.12
2022-12-23T01:07:30.868Z,8.12
2022-12-23T01:09:57.435Z,8.11
2022-12-23T01:12:23.990Z,8.12
2022-12-23T01:14:50.556Z,8.12
2022-12-23T01:17:18.347Z,8.10
2022-12-23T01:19:45.020Z,8.10
2022-12-23T01:22:11.634Z,8.09
2022-12-23T01:24:38.195Z,8.09
2022-12-23T01:27:04.760Z,8.08
2022-12-23T01:29:31.394Z,8.07
2022-12-23T01:31:58.062Z,8.06
2022-12-23T01:34:24.659Z,8.06
2022-12-23T01:36:51.244Z,8.05
2022-12-23T01:39:17.876Z,8.03
2022-12-23T01:42:04.428Z,8.01
2022-12-23T01:44:50.585Z,7.90
2022-12-23T01:47:32.058Z,7.89
2022-12-23T01:50:04.822Z,7.86
2022-12-23T01:52:36.154Z,7.84
2022-12-23T01:55:02.812Z,7.81
2022-12-23T01:57:29.691Z,7.80
2022-12-23T02:00:16.273Z,7.80
2022-12-23T02:03:03.611Z,7.78
2022-12-23T02:05:30.665Z,7.77
2022-12-23T02:08:17.888Z,7.80
2022-12-23T02:11:04.759Z,7.80
2022-12-23T02:14:03.270Z,7.82
2022-12-23T02:16:34.973Z,7.82
2022-12-23T02:25:15.772Z,8.13
2022-12-23T02:30:25.100Z,7.94
2022-12-23T02:38:45.836Z,7.84
2022-12-23T02:44:02.816Z,7.78
2022-12-23T02:46:38.467Z,7.78
2022-12-23T02:49:12.063Z,7.78
2022-12-23T02:51:44.355Z,7.76
2022-12-23T02:54:18.310Z,7.77
2022-12-23T02:56:49.181Z,7.74
2022-12-23T02:59:20.395Z,7.68
2022-12-23T03:01:49.981Z,7.63
2022-12-23T03:04:16.636Z,7.59
2022-12-23T03:06:48.331Z,7.56
2022-12-23T03:09:24.753Z,7.50
2022-12-23T03:12:02.944Z,7.49
2022-12-23T03:14:53.762Z,7.45
2022-12-23T03:23:03.809Z,7.50
2022-12-23T03:25:35.980Z,7.47
2022-12-23T03:30:46.426Z,7.39
2022-12-23T03:33:18.923Z,7.34
2022-12-23T03:35:55.594Z,7.23
2022-12-23T03:38:23.665Z,7.24
2022-12-23T03:40:56.328Z,7.24
2022-12-23T03:43:33.175Z,7.23
2022-12-23T03:46:01.841Z,7.14
2022-12-23T03:48:41.090Z,7.21
2022-12-23T03:51:14.647Z,7.22
2022-12-23T03:53:49.630Z,7.18
2022-12-23T03:56:23.197Z,7.14
2022-12-23T04:09:36.112Z,6.93
2022-12-23T04:12:03.282Z,6.89
2022-12-23T04:14:30.385Z,6.90
2022-12-23T04:16:58.500Z,6.92
2022-12-23T04:19:25.389Z,6.96
2022-12-23T04:21:54.162Z,6.97
2022-12-23T04:24:20.714Z,6.81
2022-12-23T04:26:47.255Z,6.86
2022-12-23T04:29:13.805Z,6.84
2022-12-23T04:31:40.555Z,6.79
2022-12-23T04:34:07.193Z,6.67
2022-12-23T04:36:33.731Z,6.70
2022-12-23T04:39:00.472Z,6.59
2022-12-23T04:41:27.052Z,6.63
2022-12-23T04:43:53.708Z,6.64
2022-12-23T04:46:20.874Z,6.59
2022-12-23T04:48:47.558Z,6.62
2022-12-23T04:51:14.188Z,6.52
2022-12-23T04:53:40.795Z,6.50
2022-12-23T04:56:07.397Z,6.57
2022-12-23T04:58:34.027Z,6.51
2022-12-23T05:01:10.429Z,6.46
2022-12-23T05:03:38.660Z,6.46
2022-12-23T05:06:05.961Z,6.43
2022-12-23T05:08:33.135Z,6.44
2022-12-23T05:10:59.679Z,6.44
2022-12-23T05:13:26.860Z,6.45
2022-12-23T05:15:54.649Z,6.44
2022-12-23T05:18:22.137Z,6.47
2022-12-23T05:20:49.444Z,6.47
2022-12-23T05:23:16.149Z,6.41
2022-12-23T05:25:42.743Z,6.45
2022-12-23T05:28:09.633Z,6.41
2022-12-23T05:30:36.497Z,6.43
2022-12-23T05:33:03.180Z,6.47
2022-12-23T05:35:29.773Z,6.45
2022-12-23T05:37:57.804Z,6.48
2022-12-23T05:40:29.485Z,6.48
2022-12-23T05:42:57.881Z,6.52
2022-12-23T05:45:24.599Z,6.56
2022-12-23T05:47:51.124Z,6.58
2022-12-23T05:50:18.632Z,6.59
2022-12-23T05:52:45.190Z,6.61
2022-12-23T05:55:11.748Z,6.63
2022-12-23T05:57:38.338Z,6.64
2022-12-23T06:00:05.301Z,6.65
2022-12-23T06:02:31.962Z,6.65
2022-12-23T06:04:58.635Z,6.65
2022-12-23T06:07:25.245Z,6.66
2022-12-23T06:09:51.864Z,6.67
2022-12-23T06:12:18.379Z,6.66
2022-12-23T06:14:44.964Z,6.65
2022-12-23T06:17:11.490Z,6.66
2022-12-23T06:19:38.046Z,6.67
2022-12-23T06:22:04.653Z,6.65
2022-12-23T06:24:31.220Z,6.63
2022-12-23T06:26:57.823Z,6.59
2022-12-23T06:29:24.993Z,6.42
2022-12-23T06:31:51.672Z,6.38
2022-12-23T06:34:18.419Z,6.39
2022-12-23T06:36:44.974Z,6.44
2022-12-23T06:39:11.899Z,6.45
2022-12-23T06:41:38.479Z,6.32
2022-12-23T06:44:05.330Z,6.16
2022-12-23T06:46:32.185Z,6.20
2022-12-23T06:48:58.827Z,6.26
2022-12-23T06:51:25.384Z,6.24
2022-12-23T06:53:51.909Z,6.23
2022-12-23T06:56:18.892Z,6.11
2022-12-23T06:58:45.452Z,6.11
2022-12-23T07:01:12.226Z,6.11
2022-12-23T07:03:38.952Z,6.07
2022-12-23T07:06:05.855Z,6.04
2022-12-23T07:08:32.399Z,5.95
2022-12-23T07:11:00.126Z,5.92
2022-12-23T07:13:27.093Z,5.89
2022-12-23T07:15:53.650Z,5.92
2022-12-23T07:18:22.935Z,5.98
2022-12-23T07:20:50.817Z,5.97
2022-12-23T07:23:17.536Z,5.79
2022-12-23T07:25:44.654Z,5.82
2022-12-23T07:28:11.183Z,5.82
2022-12-23T07:30:37.756Z,5.73
2022-12-23T07:33:04.332Z,5.74
2022-12-23T07:35:30.880Z,5.72
2022-12-23T07:37:57.480Z,5.73
2022-12-23T07:40:24.918Z,5.73
2022-12-23T07:42:56.843Z,5.73
2022-12-23T07:45:24.260Z,5.71
2022-12-23T07:47:54.368Z,5.73
2022-12-23T07:50:22.103Z,5.70
2022-12-23T07:52:48.863Z,5.78
2022-12-23T07:55:15.492Z,5.78
2022-12-23T07:57:42.064Z,5.87
2022-12-23T08:00:11.543Z,5.92
2022-12-23T08:02:38.450Z,5.90
2022-12-23T08:05:05.665Z,5.98
2022-12-23T08:07:32.350Z,6.01
2022-12-23T08:09:58.910Z,6.03
2022-12-23T08:12:26.115Z,6.03
2022-12-23T08:14:52.930Z,6.09
2022-12-23T08:17:21.648Z,6.11
2022-12-23T08:19:48.950Z,6.15
2022-12-23T08:22:16.000Z,6.15
2022-12-23T08:24:42.523Z,6.15
2022-12-23T08:27:09.106Z,6.12
2022-12-23T08:29:36.621Z,6.13
2022-12-23T08:32:03.583Z,6.12
2022-12-23T08:34:30.147Z,6.06
2022-12-23T08:36:56.745Z,6.11
2022-12-23T08:39:23.297Z,6.08
2022-12-23T08:41:49.861Z,6.06
2022-12-23T08:44:17.481Z,6.10
2022-12-23T08:46:44.358Z,6.09
2022-12-23T08:49:11.311Z,6.12
2022-12-23T08:51:38.668Z,6.15
2022-12-23T08:54:06.235Z,6.10
2022-12-23T08:56:36.299Z,6.16
2022-12-23T08:59:04.450Z,6.15
2022-12-23T09:01:33.627Z,6.20
2022-12-23T09:04:05.328Z,6.23
2022-12-23T09:06:36.875Z,6.19
2022-12-23T09:09:04.316Z,6.24
2022-12-23T09:11:31.227Z,6.25
2022-12-23T09:13:59.780Z,6.27
2022-12-23T09:16:26.642Z,6.27
2022-12-23T09:18:53.426Z,6.26
2022-12-23T09:21:21.705Z,6.29
2022-12-23T09:23:48.775Z,6.29
2022-12-23T09:26:21.502Z,6.30
2022-12-23T09:28:48.069Z,6.33
2022-12-23T09:31:15.463Z,6.34
2022-12-23T09:33:42.468Z,6.36
2022-12-23T09:36:09.512Z,6.37
2022-12-23T09:38:36.314Z,6.37
2022-12-23T09:46:51.255Z,6.22
2022-12-23T09:49:19.713Z,6.22
2022-12-23T09:51:47.190Z,6.23
2022-12-23T09:54:38.246Z,6.22
2022-12-23T10:00:11.590Z,6.13
2022-12-23T10:05:56.290Z,6.16
2022-12-23T10:08:33.505Z,6.16
2022-12-23T10:11:07.711Z,6.19
2022-12-23T10:16:19.213Z,6.29
2022-12-23T10:19:14.750Z,6.27
2022-12-23T10:24:23.114Z,6.35
2022-12-23T10:26:56.413Z,6.35
2022-12-23T10:29:25.836Z,6.40
2022-12-23T10:32:32.290Z,6.35
2022-12-23T10:35:28.759Z,6.37
2022-12-23T10:41:08.824Z,6.39
2022-12-23T10:43:55.688Z,6.35
2022-12-23T10:54:49.498Z,6.53
2022-12-23T10:57:18.715Z,6.55
2022-12-23T10:59:45.925Z,6.53
2022-12-23T11:04:50.059Z,6.53
2022-12-23T11:10:16.987Z,6.49
2022-12-23T11:12:47.488Z,6.53
2022-12-23T11:15:36.155Z,6.49
2022-12-23T11:20:46.189Z,6.47
2022-12-23T11:23:31.677Z,6.51
2022-12-23T11:26:02.634Z,6.51
2022-12-23T11:28:31.274Z,6.57
2022-12-23T11:31:12.057Z,6.60
2022-12-23T11:33:45.869Z,6.63
2022-12-23T11:38:54.604Z,6.67
2022-12-23T11:41:23.624Z,6.70
2022-12-23T11:44:28.962Z,6.72
2022-12-23T11:46:55.641Z,6.78
2022-12-23T11:52:19.000Z,6.82
2022-12-23T11:54:54.914Z,6.86
2022-12-23T11:57:30.271Z,6.90
2022-12-23T12:00:01.781Z,6.93
2022-12-23T12:07:43.637Z,6.99
2022-12-23T12:10:18.263Z,7.00
2022-12-23T12:12:48.751Z,7.04
2022-12-23T12:15:27.268Z,7.05
2022-12-23T12:17:56.631Z,7.08
2022-12-23T12:20:38.887Z,7.07
2022-12-23T12:23:13.178Z,7.08
2022-12-23T12:25:46.854Z,7.10
2022-12-23T12:28:21.185Z,7.15
2022-12-23T12:30:53.904Z,7.22
2022-12-23T12:33:30.302Z,7.25
2022-12-23T12:36:09.836Z,7.27
2022-12-23T12:38:39.158Z,7.29
2022-12-23T12:44:33.478Z,7.27
2022-12-23T12:47:28.188Z,7.28
2022-12-23T12:49:59.639Z,7.26
2022-12-23T12:52:28.078Z,7.27
2022-12-23T12:57:36.639Z,7.66
2022-12-23T13:00:06.881Z,7.45
2022-12-23T13:10:57.014Z,7.43
2022-12-23T13:13:31.894Z,7.39
2022-12-23T13:16:27.869Z,7.40
2022-12-23T13:27:03.158Z,7.55
2022-12-23T13:32:33.592Z,7.58
2022-12-23T13:35:39.947Z,7.58
2022-12-23T13:43:49.660Z,7.67
2022-12-23T13:49:08.633Z,7.70
2022-12-23T13:56:58.022Z,7.60
2022-12-23T13:59:39.372Z,7.56
2022-12-23T14:02:42.716Z,7.56
2022-12-23T14:08:08.244Z,7.97
2022-12-23T14:10:36.181Z,7.80
2022-12-23T14:13:08.489Z,7.80
2022-12-23T14:20:55.262Z,7.89
2022-12-23T14:26:25.188Z,7.92
2022-12-23T14:31:41.286Z,7.89
2022-12-23T14:34:30.810Z,7.85
2022-12-23T14:39:59.375Z,8.29
2022-12-23T14:42:43.526Z,8.05
2022-12-23T14:45:42.706Z,7.97
2022-12-23T14:48:49.070Z,7.96
2022-12-23T14:51:37.906Z,7.97
2022-12-23T15:02:21.114Z,8.09
2022-12-23T15:04:55.459Z,8.11
2022-12-23T15:07:28.841Z,8.14
2022-12-23T15:10:01.042Z,8.16
2022-12-23T15:15:25.060Z,8.19
2022-12-23T15:18:12.509Z,8.19
2022-12-23T15:20:39.853Z,8.24
2022-12-23T15:23:14.296Z,8.25
2022-12-23T15:25:46.081Z,8.25
2022-12-23T15:28:18.702Z,8.25
2022-12-23T15:30:51.189Z,8.23
2022-12-23T15:34:00.782Z,8.26
2022-12-23T15:36:10.201Z,8.27
2022-12-23T15:38:38.796Z,8.27
2022-12-23T15:41:15.012Z,8.25
2022-12-23T15:43:43.601Z,8.26
2022-12-23T15:46:17.210Z,8.27
2022-12-23T15:48:44.164Z,8.29
2022-12-23T15:51:30.604Z,8.33
2022-12-23T15:54:06.220Z,8.37
2022-12-23T15:56:38.786Z,8.41
2022-12-23T15:59:06.398Z,8.44
2022-12-23T16:01:38.910Z,8.47
2022-12-23T16:04:08.926Z,8.48
2022-12-23T16:06:36.702Z,8.52
2022-12-23T16:27:39.054Z,8.83
2022-12-23T16:30:15.653Z,8.85
2022-12-23T16:32:50.734Z,8.88
2022-12-23T16:38:27.165Z,8.90
2022-12-23T16:40:56.404Z,8.90
2022-12-23T16:43:24.643Z,8.92
2022-12-23T16:45:56.355Z,8.91
2022-12-23T16:51:02.117Z,8.93
2022-12-23T16:53:29.249Z,8.94
2022-12-23T16:56:00.568Z,8.93
2022-12-23T16:58:27.523Z,8.90
2022-12-23T17:00:54.206Z,8.92
2022-12-23T17:03:21.141Z,8.94
2022-12-23T17:05:48.215Z,8.96
2022-12-23T17:08:14.981Z,8.98
2022-12-23T17:10:44.485Z,9.00
2022-12-23T17:13:14.397Z,9.02
2022-12-23T17:15:41.005Z,9.04
2022-12-23T17:18:18.025Z,9.03
2022-12-23T17:20:48.034Z,9.04
2022-12-23T17:23:32.496Z,8.98
2022-12-23T17:25:59.160Z,8.99
2022-12-23T17:28:32.011Z,9.00
2022-12-23T17:30:59.177Z,9.02
2022-12-23T17:33:29.435Z,9.04
2022-12-23T17:35:56.074Z,8.97
2022-12-23T17:38:22.830Z,9.03
2022-12-23T17:40:50.212Z,9.04
2022-12-23T17:43:18.149Z,9.03
2022-12-23T17:45:45.703Z,8.99
2022-12-23T17:48:19.719Z,8.96
2022-12-23T17:50:46.846Z,8.89
2022-12-23T17:53:14.949Z,8.89
2022-12-23T17:55:41.883Z,8.83
2022-12-23T17:58:08.671Z,8.79
2022-12-23T18:00:35.800Z,8.77
2022-12-23T18:03:05.065Z,8.74
2022-12-23T18:05:35.088Z,8.77
2022-12-23T18:08:03.192Z,8.75
2022-12-23T18:10:34.042Z,8.76
2022-12-23T18:13:04.856Z,8.77
2022-12-23T18:15:36.666Z,8.77
2022-12-23T18:18:15.870Z,8.74
2022-12-23T18:20:46.554Z,8.79
2022-12-23T18:23:15.494Z,8.81
2022-12-23T18:25:42.230Z,8.83
2022-12-23T18:28:11.118Z,8.78
2022-12-23T18:30:38.454Z,8.79
2022-12-23T18:33:08.719Z,8.74
2022-12-23T18:35:39.621Z,8.59
2022-12-23T18:38:06.251Z,8.64
2022-12-23T18:40:33.283Z,8.63
2022-12-23T18:43:00.642Z,8.61
2022-12-23T18:45:37.709Z,8.58
2022-12-23T18:48:07.333Z,8.58
2022-12-23T18:50:35.994Z,8.53
2022-12-23T18:53:02.996Z,8.49
2022-12-23T18:55:30.442Z,8.47
2022-12-23T18:57:58.999Z,8.44
2022-12-23T19:00:28.665Z,8.41
2022-12-23T19:02:56.311Z,8.38
2022-12-23T19:05:26.863Z,8.37
2022-12-23T19:07:56.158Z,8.33
2022-12-23T19:10:27.239Z,8.29
2022-12-23T19:12:54.524Z,8.27
2022-12-23T19:15:21.983Z,8.24
2022-12-23T19:17:50.340Z,8.21
2022-12-23T19:20:18.969Z,8.21
2022-12-23T19:22:46.981Z,8.19
2022-12-23T19:25:16.733Z,8.17
2022-12-23T19:27:44.334Z,8.16
2022-12-23T19:30:14.579Z,8.13
2022-12-23T19:32:41.220Z,8.10
2022-12-23T19:35:08.515Z,8.09
2022-12-23T19:37:36.400Z,8.05
2022-12-23T19:40:04.253Z,8.05
2022-12-23T19:42:30.872Z,8.03
2022-12-23T19:44:57.481Z,8.01
2022-12-23T19:47:24.134Z,8.01
2022-12-23T19:49:50.657Z,7.98
2022-12-23T19:52:17.298Z,7.94
2022-12-23T19:54:43.930Z,7.91
2022-12-23T19:57:10.494Z,7.89
2022-12-23T19:59:37.306Z,7.83
2022-12-23T20:02:03.962Z,7.81
2022-12-23T20:04:31.976Z,7.78
2022-12-23T20:06:58.518Z,7.77
2022-12-23T20:09:25.109Z,7.75
2022-12-23T20:11:51.643Z,7.72
2022-12-23T20:14:19.561Z,7.69
2022-12-23T20:16:48.370Z,7.65
2022-12-23T20:19:17.140Z,7.64
2022-12-23T20:21:45.802Z,7.64
2022-12-23T20:24:14.369Z,7.61
2022-12-23T20:26:41.543Z,7.59
2022-12-23T20:29:09.253Z,7.57
2022-12-23T20:31:37.761Z,7.54
2022-12-23T20:34:07.415Z,7.51
2022-12-23T20:36:36.098Z,7.49
2022-12-23T20:39:03.784Z,7.43
2022-12-23T20:41:31.461Z,7.43
2022-12-23T20:46:45.532Z,7.37
2022-12-23T20:49:12.732Z,7.36
2022-12-23T20:51:39.241Z,7.33
2022-12-23T20:54:05.815Z,7.31
2022-12-23T20:56:32.437Z,7.32
2022-12-23T20:59:00.320Z,7.29
2022-12-23T21:01:30.932Z,7.29
2022-12-23T21:03:59.458Z,7.26
2022-12-23T21:06:26.599Z,7.24
2022-12-23T21:08:55.789Z,7.23
2022-12-23T21:11:23.413Z,7.18
2022-12-23T21:13:51.114Z,7.17
2022-12-23T21:16:17.940Z,7.14
2022-12-23T21:18:50.557Z,7.13
2022-12-23T21:21:17.197Z,7.13
2022-12-23T21:23:44.024Z,7.10
2022-12-23T21:26:14.346Z,7.09
2022-12-23T21:28:41.576Z,6.98
2022-12-23T21:31:08.575Z,7.02
2022-12-23T21:33:36.932Z,7.02
2022-12-23T21:36:04.105Z,7.01
2022-12-23T21:38:33.167Z,6.99
2022-12-23T21:41:01.609Z,6.99
2022-12-23T21:43:28.678Z,6.97
2022-12-23T21:45:57.328Z,6.97
2022-12-23T21:48:24.000Z,6.96
2022-12-23T21:50:50.621Z,6.94
2022-12-23T21:53:17.204Z,6.94
2022-12-23T21:55:43.734Z,6.92
2022-12-23T21:58:10.299Z,6.93
2022-12-23T22:00:36.929Z,6.94
2022-12-23T22:03:03.673Z,6.93
2022-12-23T22:05:30.219Z,6.94
2022-12-23T22:07:56.742Z,6.93
2022-12-23T22:10:23.325Z,6.92
2022-12-23T22:12:49.872Z,6.92
2022-12-23T22:15:17.458Z,6.90
2022-12-23T22:17:44.006Z,6.91
2022-12-23T22:20:11.197Z,6.88
2022-12-23T22:22:37.727Z,6.90
2022-12-23T22:25:04.654Z,6.91
2022-12-23T22:27:31.224Z,6.94
2022-12-23T22:29:57.758Z,6.96
2022-12-23T22:32:24.325Z,7.00
2022-12-23T22:34:50.878Z,7.00
2022-12-23T22:37:17.512Z,7.02
2022-12-23T22:39:44.152Z,7.03
2022-12-23T22:42:10.743Z,7.01
2022-12-23T22:44:37.305Z,6.98
2022-12-23T22:47:03.922Z,6.96
2022-12-23T22:49:30.548Z,6.93
2022-12-23T22:51:57.087Z,6.90
2022-12-23T22:54:23.634Z,6.88
2022-12-23T22:56:50.178Z,6.88
2022-12-23T22:59:20.552Z,6.87
2022-12-23T23:01:47.757Z,6.78
2022-12-23T23:04:14.403Z,6.83
2022-12-23T23:06:41.922Z,6.83
2022-12-23T23:09:12.739Z,6.82
2022-12-23T23:11:39.754Z,6.79
2022-12-23T23:14:06.367Z,6.78
2022-12-23T23:16:33.551Z,6.80
2022-12-23T23:19:00.643Z,6.83
2022-12-23T23:21:27.299Z,6.84
2022-12-23T23:23:53.871Z,6.87
2022-12-23T23:26:20.897Z,6.88
2022-12-23T23:28:47.880Z,6.91
2022-12-23T23:31:41.000Z,6.94
2022-12-23T23:34:01.131Z,6.93
2022-12-23T23:36:27.752Z,6.98
2022-12-23T23:38:54.400Z,6.99
2022-12-23T23:41:23.624Z,6.99
2022-12-23T23:43:51.207Z,7.00
2022-12-23T23:46:18.019Z,6.98
2022-12-23T23:48:44.690Z,7.02
2022-12-23T23:51:12.546Z,7.00
2022-12-23T23:53:39.345Z,7.01
2022-12-23T23:56:07.007Z,7.03
2022-12-23T23:58:35.481Z,7.08
